Stephanie Kennelly — WDE3527 — position and weather

sailwx.info

Track history (hours):
 
Tides and Currents Weather Stations Pressure Air Temp Water Temp Dewpoint Dewpoint Depression Visibility Wind Speed Wind Dir Waves Ship Positions

Stephanie Kennelly

Owner: Florida Marine Transporters, Inc., Mandeville, LA. More information available from US FCC via Universal Licensing System and Coast Guard Vessel Documentation Center.

Last reported at 2017-Oct-19 08:37 UTC. Time now 2017-Oct-20 03:28 UTC.
Position N 29°46' W 095°06'.

Length 27 m; draft 2.8 m.

Type: Towing. MMSI: 367340430.

Date/timePositionNaut miles runAvg speedWind from/ knotsBaromVisibWave heightAir tempDewpointWater temp
2017-Oct-19 08:37N 29°46' W 095°06'1 4.0
2017-Oct-19 08:29N 29°46' W 095°05'1 0.9
2017-Oct-19 07:01N 29°47' W 095°04'0 3.2
2017-Oct-19 07:00N 29°47' W 095°04'1 2.1
2017-Oct-19 06:29N 29°46' W 095°05'1 2.4
2017-Oct-19 05:59N 29°46' W 095°06'1 0.4
2017-Oct-19 04:15N 29°46' W 095°07'0 0.0
2017-Oct-19 03:58N 29°46' W 095°07'0 0.0
2017-Oct-19 03:29N 29°46' W 095°07'0 0.0
2017-Oct-19 02:39N 29°46' W 095°07'0 0.0
2017-Oct-19 02:26N 29°46' W 095°07'0 0.0
2017-Oct-18 13:46N 29°46' W 095°07'0 0.0
2017-Oct-18 13:29N 29°46' W 095°07'0 0.0
2017-Oct-18 13:00N 29°46' W 095°07'0 0.0
2017-Oct-18 12:30N 29°46' W 095°07'0 0.0
2017-Oct-18 12:00N 29°46' W 095°07'0 0.0
2017-Oct-18 11:30N 29°46' W 095°07'0 0.0
2017-Oct-18 11:00N 29°46' W 095°07'0 0.0
2017-Oct-18 10:30N 29°46' W 095°07'0 0.1
2017-Oct-18 09:59N 29°46' W 095°07'1 1.3
2017-Oct-18 09:28N 29°46' W 095°06'2 3.7
2017-Oct-18 08:59N 29°44' W 095°07'3 6.2
2017-Oct-18 08:30N 29°45' W 095°11'1 2.1
2017-Oct-18 08:00N 29°45' W 095°12'0 0.0
2017-Oct-18 07:29N 29°45' W 095°12'0 0.0
2017-Oct-18 07:00N 29°45' W 095°12'0 0.0
2017-Oct-18 06:30N 29°45' W 095°12'0 0.0
2017-Oct-18 06:00N 29°45' W 095°12'0 0.0
2017-Oct-18 05:30N 29°45' W 095°12'0 0.0
2017-Oct-18 05:00N 29°45' W 095°12'0 0.0
2017-Oct-18 04:30N 29°45' W 095°12'0 0.0
2017-Oct-18 04:00N 29°45' W 095°12'0 0.0
2017-Oct-18 03:30N 29°45' W 095°12'0 0.0
2017-Oct-18 03:01N 29°45' W 095°12'0 0.0
2017-Oct-18 02:30N 29°45' W 095°12'0 0.0
2017-Oct-18 02:00N 29°45' W 095°12'0 0.0
2017-Oct-18 01:30N 29°45' W 095°12'0 0.0
2017-Oct-18 01:00N 29°45' W 095°12'0 0.0
2017-Oct-18 00:30N 29°45' W 095°12'0 0.0
2017-Oct-18 00:00N 29°45' W 095°12'0 0.0
2017-Oct-17 23:30N 29°45' W 095°12'0 0.0
2017-Oct-17 23:00N 29°45' W 095°12'0 0.0
2017-Oct-17 22:30N 29°45' W 095°12'0 0.0
2017-Oct-17 22:00N 29°45' W 095°12'0 0.0
2017-Oct-17 21:30N 29°45' W 095°12'0 0.0
2017-Oct-17 21:00N 29°45' W 095°12'0 0.0
2017-Oct-17 20:29N 29°45' W 095°12'0 0.0
2017-Oct-17 19:59N 29°45' W 095°12'0 0.0
2017-Oct-17 19:30N 29°45' W 095°12'0 0.0
2017-Oct-17 19:00N 29°45' W 095°12'0 0.0
2017-Oct-17 18:30N 29°45' W 095°12'0 0.0
2017-Oct-17 17:58N 29°45' W 095°12'0 0.0
2017-Oct-17 17:30N 29°45' W 095°12'0 0.0
2017-Oct-17 17:00N 29°45' W 095°12'0 0.0
2017-Oct-17 16:30N 29°45' W 095°12'0 0.0
2017-Oct-17 16:00N 29°45' W 095°12'0 0.0
2017-Oct-17 15:30N 29°45' W 095°12'0 0.0
2017-Oct-17 15:00N 29°45' W 095°12'0 0.0
2017-Oct-17 14:30N 29°45' W 095°12'0 0.0
2017-Oct-17 14:00N 29°45' W 095°12'0 0.0
2017-Oct-17 13:30N 29°45' W 095°12'0 0.0
2017-Oct-17 13:00N 29°45' W 095°12'0 0.0
2017-Oct-17 12:30N 29°45' W 095°12'0 0.0
2017-Oct-17 12:00N 29°45' W 095°12'0 0.0
2017-Oct-17 11:30N 29°45' W 095°12'0 0.0
2017-Oct-17 11:00N 29°45' W 095°12'0 0.0
2017-Oct-17 10:30N 29°45' W 095°12'1 1.8
2017-Oct-17 09:58N 29°45' W 095°11'2 4.3
2017-Oct-17 09:30N 29°44' W 095°09'2 3.8
2017-Oct-17 08:58N 29°45' W 095°06'2 3.9
2017-Oct-17 08:30N 29°46' W 095°05'2 2.8
2017-Oct-17 07:56N 29°47' W 095°04'0 0.2
2017-Oct-17 07:29N 29°47' W 095°04'0 0.1
2017-Oct-17 06:59N 29°47' W 095°04'0 0.1
2017-Oct-17 06:30N 29°47' W 095°04'2 0.3
2017-Oct-17 00:19N 29°46' W 095°05'0 0.6
2017-Oct-16 23:58N 29°46' W 095°05'1 0.1
2017-Oct-16 10:43N 29°47' W 095°04'1 1.9
2017-Oct-16 10:19N 29°47' W 095°04'  
2017-Oct-11 17:17N 29°46' W 095°06'0 0.1
2017-Oct-11 16:53N 29°46' W 095°06'0 0.0
2017-Oct-10 23:54N 29°46' W 095°06'0 0.0
2017-Oct-10 22:47N 29°46' W 095°06'0 0.0
2017-Oct-10 21:20N 29°46' W 095°06'0 0.0
2017-Oct-10 21:00N 29°46' W 095°06'0 0.0
2017-Oct-10 13:56N 29°46' W 095°06'0 0.0
2017-Oct-10 11:17N 29°46' W 095°06'0 0.0
2017-Oct-10 10:59N 29°46' W 095°06'0 0.0
2017-Oct-10 10:29N 29°46' W 095°06'0 0.0
2017-Oct-10 09:59N 29°46' W 095°06'0 0.0
2017-Oct-10 09:29N 29°46' W 095°06'0 0.0
2017-Oct-09 19:35N 29°46' W 095°06'  
Track history (hours):
 
Tides and Currents Weather Stations Pressure Air Temp Water Temp Dewpoint Dewpoint Depression Visibility Wind Speed Wind Dir Waves Ship Positions

Stephanie Kennelly

Owner: Florida Marine Transporters, Inc., Mandeville, LA. More information available from US FCC via Universal Licensing System and Coast Guard Vessel Documentation Center.

Last reported at 2017-Oct-19 08:37 UTC. Time now 2017-Oct-20 03:28 UTC.
Position N 29°46' W 095°06'.

Length 27 m; draft 2.8 m.

Type: Towing. MMSI: 367340430.

Date/timePositionNaut miles runAvg speedWind from/ knotsBaromVisibWave heightAir tempDewpointWater temp
2017-Oct-19 08:37N 29°46' W 095°06'1 4.0
2017-Oct-19 08:29N 29°46' W 095°05'1 0.9
2017-Oct-19 07:01N 29°47' W 095°04'0 3.2
2017-Oct-19 07:00N 29°47' W 095°04'1 2.1
2017-Oct-19 06:29N 29°46' W 095°05'1 2.4
2017-Oct-19 05:59N 29°46' W 095°06'1 0.4
2017-Oct-19 04:15N 29°46' W 095°07'0 0.0
2017-Oct-19 03:58N 29°46' W 095°07'0 0.0
2017-Oct-19 03:29N 29°46' W 095°07'0 0.0
2017-Oct-19 02:39N 29°46' W 095°07'0 0.0
2017-Oct-19 02:26N 29°46' W 095°07'0 0.0
2017-Oct-18 13:46N 29°46' W 095°07'0 0.0
2017-Oct-18 13:29N 29°46' W 095°07'0 0.0
2017-Oct-18 13:00N 29°46' W 095°07'0 0.0
2017-Oct-18 12:30N 29°46' W 095°07'0 0.0
2017-Oct-18 12:00N 29°46' W 095°07'0 0.0
2017-Oct-18 11:30N 29°46' W 095°07'0 0.0
2017-Oct-18 11:00N 29°46' W 095°07'0 0.0
2017-Oct-18 10:30N 29°46' W 095°07'0 0.1
2017-Oct-18 09:59N 29°46' W 095°07'1 1.3
2017-Oct-18 09:28N 29°46' W 095°06'2 3.7
2017-Oct-18 08:59N 29°44' W 095°07'3 6.2
2017-Oct-18 08:30N 29°45' W 095°11'1 2.1
2017-Oct-18 08:00N 29°45' W 095°12'0 0.0
2017-Oct-18 07:29N 29°45' W 095°12'0 0.0
2017-Oct-18 07:00N 29°45' W 095°12'0 0.0
2017-Oct-18 06:30N 29°45' W 095°12'0 0.0
2017-Oct-18 06:00N 29°45' W 095°12'0 0.0
2017-Oct-18 05:30N 29°45' W 095°12'0 0.0
2017-Oct-18 05:00N 29°45' W 095°12'0 0.0
2017-Oct-18 04:30N 29°45' W 095°12'0 0.0
2017-Oct-18 04:00N 29°45' W 095°12'0 0.0
2017-Oct-18 03:30N 29°45' W 095°12'0 0.0
2017-Oct-18 03:01N 29°45' W 095°12'0 0.0
2017-Oct-18 02:30N 29°45' W 095°12'0 0.0
2017-Oct-18 02:00N 29°45' W 095°12'0 0.0
2017-Oct-18 01:30N 29°45' W 095°12'0 0.0
2017-Oct-18 01:00N 29°45' W 095°12'0 0.0
2017-Oct-18 00:30N 29°45' W 095°12'0 0.0
2017-Oct-18 00:00N 29°45' W 095°12'0 0.0
2017-Oct-17 23:30N 29°45' W 095°12'0 0.0
2017-Oct-17 23:00N 29°45' W 095°12'0 0.0
2017-Oct-17 22:30N 29°45' W 095°12'0 0.0
2017-Oct-17 22:00N 29°45' W 095°12'0 0.0
2017-Oct-17 21:30N 29°45' W 095°12'0 0.0
2017-Oct-17 21:00N 29°45' W 095°12'0 0.0
2017-Oct-17 20:29N 29°45' W 095°12'0 0.0
2017-Oct-17 19:59N 29°45' W 095°12'0 0.0
2017-Oct-17 19:30N 29°45' W 095°12'0 0.0
2017-Oct-17 19:00N 29°45' W 095°12'0 0.0
2017-Oct-17 18:30N 29°45' W 095°12'0 0.0
2017-Oct-17 17:58N 29°45' W 095°12'0 0.0
2017-Oct-17 17:30N 29°45' W 095°12'0 0.0
2017-Oct-17 17:00N 29°45' W 095°12'0 0.0
2017-Oct-17 16:30N 29°45' W 095°12'0 0.0
2017-Oct-17 16:00N 29°45' W 095°12'0 0.0
2017-Oct-17 15:30N 29°45' W 095°12'0 0.0
2017-Oct-17 15:00N 29°45' W 095°12'0 0.0
2017-Oct-17 14:30N 29°45' W 095°12'0 0.0
2017-Oct-17 14:00N 29°45' W 095°12'0 0.0
2017-Oct-17 13:30N 29°45' W 095°12'0 0.0
2017-Oct-17 13:00N 29°45' W 095°12'0 0.0
2017-Oct-17 12:30N 29°45' W 095°12'0 0.0
2017-Oct-17 12:00N 29°45' W 095°12'0 0.0
2017-Oct-17 11:30N 29°45' W 095°12'0 0.0
2017-Oct-17 11:00N 29°45' W 095°12'0 0.0
2017-Oct-17 10:30N 29°45' W 095°12'1 1.8
2017-Oct-17 09:58N 29°45' W 095°11'2 4.3
2017-Oct-17 09:30N 29°44' W 095°09'2 3.8
2017-Oct-17 08:58N 29°45' W 095°06'2 3.9
2017-Oct-17 08:30N 29°46' W 095°05'2 2.8
2017-Oct-17 07:56N 29°47' W 095°04'0 0.2
2017-Oct-17 07:29N 29°47' W 095°04'0 0.1
2017-Oct-17 06:59N 29°47' W 095°04'0 0.1
2017-Oct-17 06:30N 29°47' W 095°04'2 0.3
2017-Oct-17 00:19N 29°46' W 095°05'0 0.6
2017-Oct-16 23:58N 29°46' W 095°05'1 0.1
2017-Oct-16 10:43N 29°47' W 095°04'1 1.9
2017-Oct-16 10:19N 29°47' W 095°04'  
2017-Oct-11 17:17N 29°46' W 095°06'0 0.1
2017-Oct-11 16:53N 29°46' W 095°06'0 0.0
2017-Oct-10 23:54N 29°46' W 095°06'0 0.0
2017-Oct-10 22:47N 29°46' W 095°06'0 0.0
2017-Oct-10 21:20N 29°46' W 095°06'0 0.0
2017-Oct-10 21:00N 29°46' W 095°06'0 0.0
2017-Oct-10 13:56N 29°46' W 095°06'0 0.0
2017-Oct-10 11:17N 29°46' W 095°06'0 0.0
2017-Oct-10 10:59N 29°46' W 095°06'0 0.0
2017-Oct-10 10:29N 29°46' W 095°06'0 0.0
2017-Oct-10 09:59N 29°46' W 095°06'0 0.0
2017-Oct-10 09:29N 29°46' W 095°06'0 0.0
2017-Oct-09 19:35N 29°46' W 095°06'  

Dump ship's entire track history